Onego Capri — V2ED7 — position and weather

sailwx.info

Track history (hours):
 
Tides and Currents Weather Stations Pressure Air Temp Water Temp Dewpoint Dewpoint Depression Visibility Wind Speed Wind Dir Waves Ship Positions

Onego Capri

Last reported at 2018-Apr-24 02:30 UTC. Time now 2018-Apr-24 02:38 UTC.
Position N 54°38' E 012°28'.

Length 140 m; draft 4.1 m.

Type: Cargo ship. MMSI: 305394000.

Date/timePositionNaut miles runAvg speedWind from/ knotsBaromVisibWave heightAir tempDewpointWater temp
2018-Apr-24 02:30N 54°38' E 012°28'913.1
2018-Apr-24 01:50N 54°32' E 012°17'613.2
2018-Apr-24 01:25N 54°27' E 012°13'512.8
2018-Apr-24 01:00N 54°24' E 012°05'713.7
2018-Apr-24 00:30N 54°24' E 011°53'713.2
2018-Apr-24 00:00N 54°25' E 011°42'713.6
2018-Apr-23 23:30N 54°28' E 011°32'713.4
2018-Apr-23 23:00N 54°31' E 011°22'713.5
2018-Apr-23 22:30N 54°34' E 011°11'713.2
2018-Apr-23 22:00N 54°35' E 010°60'713.5
2018-Apr-23 21:30N 54°34' E 010°48'713.2
2018-Apr-23 21:00N 54°34' E 010°37'612.8
2018-Apr-23 20:30N 54°31' E 010°27'711.7
2018-Apr-23 19:54N 54°28' E 010°16'18 5.0
2018-Apr-23 16:21N 54°22' E 009°47'3 8.7
2018-Apr-23 16:00N 54°20' E 009°43'4 7.4
2018-Apr-23 15:30N 54°17' E 009°39'3 6.7
2018-Apr-23 15:00N 54°14' E 009°36'4 8.3
2018-Apr-23 14:30N 54°11' E 009°31'4 8.4
2018-Apr-23 14:00N 54°10' E 009°25'4 7.9
2018-Apr-23 13:30N 54°07' E 009°20'4 8.6
2018-Apr-23 13:00N 54°03' E 009°18'1 2.9
2018-Apr-23 12:30N 54°01' E 009°18'4 7.5
2018-Apr-23 12:00N 53°58' E 009°15'4 8.3
2018-Apr-23 11:30N 53°55' E 009°11'2 3.1
2018-Apr-23 11:00N 53°54' E 009°09'1 2.3
2018-Apr-23 10:30N 53°53' E 009°07'1 1.1
2018-Apr-23 10:00N 53°53' E 009°06'1 1.2
2018-Apr-23 09:30N 53°53' E 009°05'4 8.3
2018-Apr-23 09:00N 53°51' E 008°59'510.5
2018-Apr-23 08:30N 53°50' E 008°50'510.3
2018-Apr-23 08:00N 53°53' E 008°42'510.7
2018-Apr-23 07:30N 53°57' E 008°37'611.1
2018-Apr-23 07:00N 53°59' E 008°28'611.2
2018-Apr-23 06:30N 53°60' E 008°18'611.7
2018-Apr-23 06:00N 53°59' E 008°09'713.2
2018-Apr-23 05:30N 53°58' E 007°57'713.6
2018-Apr-23 05:00N 53°57' E 007°46'813.9
2018-Apr-23 04:25N 53°55' E 007°33'8414.6
2018-Apr-22 22:39N 53°32' E 005°17'314.8
2018-Apr-22 22:29N 53°31' E 005°13'715.0
2018-Apr-22 22:01N 53°28' E 005°01'815.0
2018-Apr-22 21:30N 53°26' E 004°49'714.3
2018-Apr-22 21:00N 53°21' E 004°40'815.0
2018-Apr-22 20:28N 53°14' E 004°33'714.9
2018-Apr-22 20:00N 53°08' E 004°27'714.7
2018-Apr-22 19:30N 53°01' E 004°22'714.6
2018-Apr-22 19:01N 52°55' E 004°17'714.4
2018-Apr-22 18:30N 52°49' E 004°11'714.2
2018-Apr-22 18:00N 52°43' E 004°04'714.0
2018-Apr-22 17:30N 52°38' E 003°56'713.6
2018-Apr-22 17:00N 52°33' E 003°48'713.3
2018-Apr-22 16:30N 52°29' E 003°40'713.1
2018-Apr-22 16:00N 52°24' E 003°32'612.9
2018-Apr-22 15:30N 52°20' E 003°25'612.6
2018-Apr-22 15:01N 52°15' E 003°18'612.4
2018-Apr-22 14:30N 52°10' E 003°10'612.2
2018-Apr-22 14:00N 52°06' E 003°04'612.0
2018-Apr-22 13:29N 52°01' E 002°57'611.9
2018-Apr-22 12:59N 51°57' E 002°51'1610.9
2018-Apr-22 11:30N 51°44' E 002°34'611.8
2018-Apr-22 10:58N 51°39' E 002°28'612.2
2018-Apr-22 10:30N 51°35' E 002°22'612.6
2018-Apr-22 10:01N 51°30' E 002°16'612.6
2018-Apr-22 09:30N 51°25' E 002°10'612.9
2018-Apr-22 09:00N 51°19' E 002°06'612.8
2018-Apr-22 08:30N 51°13' E 002°01'713.5
2018-Apr-22 08:00N 51°10' E 001°53'713.7
2018-Apr-22 07:30N 51°05' E 001°45'714.1
2018-Apr-22 07:00N 50°60' E 001°37'714.9
2018-Apr-22 06:31N 50°54' E 001°29'815.4
2018-Apr-22 06:00N 50°47' E 001°25'714.5
2018-Apr-22 05:30N 50°40' E 001°20'714.1
2018-Apr-22 05:00N 50°35' E 001°12'913.8
2018-Apr-22 04:23N 50°30' E 001°01'613.6
2018-Apr-22 03:57N 50°28' E 000°53'713.6
2018-Apr-22 03:26N 50°26' E 000°42'613.5
2018-Apr-22 03:00N 50°24' E 000°34'713.7
2018-Apr-22 02:30N 50°22' E 000°23'714.0
2018-Apr-22 02:00N 50°20' E 000°13'714.4
2018-Apr-22 01:31N 50°18' E 000°02'714.7
2018-Apr-22 01:00N 50°16' W 000°09'714.9
2018-Apr-22 00:30N 50°14' W 000°20'815.2
2018-Apr-22 00:00N 50°12' W 000°32'815.1
2018-Apr-21 23:30N 50°10' W 000°43'715.0
2018-Apr-21 23:00N 50°08' W 000°54'714.7
2018-Apr-21 22:31N 50°06' W 001°05'914.1
2018-Apr-21 21:52N 50°04' W 001°19'513.5
2018-Apr-21 21:30N 50°03' W 001°27'712.9
2018-Apr-21 21:00N 50°02' W 001°36'612.0
2018-Apr-21 20:30N 49°60' W 001°45'611.7
2018-Apr-21 20:00N 49°58' W 001°54'611.3
2018-Apr-21 19:27N 49°57' W 002°03'510.9
2018-Apr-21 19:00N 49°55' W 002°11'510.2
2018-Apr-21 18:30N 49°54' W 002°18'510.0
2018-Apr-21 17:58N 49°52' W 002°26'510.0
2018-Apr-21 17:28N 49°51' W 002°34'6 9.9
2018-Apr-21 16:51N 49°49' W 002°43'410.5
2018-Apr-21 16:30N 49°48' W 002°48'711.0
2018-Apr-21 15:49N 49°46' W 002°59'411.4
2018-Apr-21 15:30N 49°44' W 003°04'611.6
2018-Apr-21 14:59N 49°41' W 003°12'611.9
2018-Apr-21 14:30N 49°38' W 003°20'611.9
2018-Apr-21 14:00N 49°35' W 003°28'612.0
2018-Apr-21 13:30N 49°32' W 003°36'11813.0
2018-Apr-21 04:27N 48°16' W 005°53'613.7
2018-Apr-21 03:59N 48°10' W 005°55'613.4
2018-Apr-21 03:30N 48°04' W 005°57'713.1
2018-Apr-21 03:00N 47°58' W 005°60'612.8
2018-Apr-21 02:30N 47°51' W 006°02'612.6
2018-Apr-21 02:00N 47°45' W 006°04'612.4
2018-Apr-21 01:30N 47°39' W 006°06'612.1
2018-Apr-21 01:00N 47°33' W 006°07'20912.1
2018-Apr-20 07:43N 44°11' W 007°19'312.1
2018-Apr-20 07:27N 44°07' W 007°20'612.5
2018-Apr-20 06:58N 44°01' W 007°21'612.6
2018-Apr-20 06:30N 43°56' W 007°23'612.5
2018-Apr-20 06:00N 43°50' W 007°25'7 0.7
2018-Apr-19 19:24N 43°43' W 007°27'2 6.2
2018-Apr-19 19:00N 43°45' W 007°26'4 8.2
2018-Apr-19 18:29N 43°45' W 007°32'4 8.1
2018-Apr-19 18:00N 43°44' W 007°37'0 0.1
2018-Apr-19 17:30N 43°44' W 007°37'0 0.0
2018-Apr-19 17:00N 43°44' W 007°37'0 0.0
2018-Apr-19 16:30N 43°44' W 007°37'0 0.0
2018-Apr-19 15:57N 43°44' W 007°37'0 0.1
2018-Apr-19 15:30N 43°44' W 007°37'0 0.0
2018-Apr-19 15:00N 43°44' W 007°37'0 0.0
2018-Apr-19 14:24N 43°44' W 007°37'0 0.0
2018-Apr-19 13:51N 43°44' W 007°37'0 0.0
2018-Apr-19 13:30N 43°44' W 007°37'0 0.0
2018-Apr-19 12:57N 43°44' W 007°37'0 0.0
2018-Apr-19 12:18N 43°44' W 007°37'0 0.0
2018-Apr-19 11:57N 43°44' W 007°37'0 0.0
2018-Apr-19 11:30N 43°44' W 007°37'0 0.0
2018-Apr-19 11:00N 43°44' W 007°37'0 0.0
2018-Apr-19 10:30N 43°44' W 007°37'0 0.0
2018-Apr-19 09:54N 43°44' W 007°37'0 0.0
2018-Apr-19 09:30N 43°44' W 007°37'0 0.0
2018-Apr-19 09:00N 43°44' W 007°37'0 0.1
2018-Apr-19 08:30N 43°44' W 007°37'0 0.0
2018-Apr-19 07:54N 43°44' W 007°37'0 0.1
2018-Apr-19 07:27N 43°44' W 007°37'0 0.0
2018-Apr-19 06:54N 43°44' W 007°37'0 0.0
2018-Apr-19 06:24N 43°44' W 007°37'0 0.0
2018-Apr-19 05:51N 43°44' W 007°37'0 0.0
2018-Apr-19 05:30N 43°44' W 007°37'0 0.0
2018-Apr-19 05:00N 43°44' W 007°37'0 0.0
2018-Apr-19 04:30N 43°44' W 007°37'0 0.0
2018-Apr-19 03:54N 43°44' W 007°37'0 0.0
2018-Apr-19 03:30N 43°44' W 007°37'0 0.1
2018-Apr-19 02:47N 43°44' W 007°37'0 0.1
2018-Apr-19 02:29N 43°44' W 007°37'0 0.0
2018-Apr-19 01:56N 43°44' W 007°37'0 0.0
2018-Apr-19 01:29N 43°44' W 007°37'0 0.0
2018-Apr-19 00:59N 43°44' W 007°37'0 0.0
2018-Apr-19 00:26N 43°44' W 007°37'0 0.0
2018-Apr-18 23:59N 43°44' W 007°37'0 0.1
2018-Apr-18 23:29N 43°44' W 007°37'0 0.1
2018-Apr-18 22:59N 43°44' W 007°37'0 0.1
2018-Apr-18 22:29N 43°44' W 007°37'0 0.0
2018-Apr-18 21:56N 43°44' W 007°37'0 0.0
2018-Apr-18 21:17N 43°44' W 007°37'0 0.0
2018-Apr-18 20:59N 43°44' W 007°37'0 0.0
2018-Apr-18 20:29N 43°44' W 007°37'0 0.0
2018-Apr-18 19:59N 43°44' W 007°37'0 0.0
2018-Apr-18 19:29N 43°44' W 007°37'0 0.0
2018-Apr-18 18:59N 43°44' W 007°37'0 0.0
2018-Apr-18 18:26N 43°44' W 007°37'0 0.1
2018-Apr-18 17:44N 43°44' W 007°37'0 0.0
2018-Apr-18 17:29N 43°44' W 007°37'0 0.1
2018-Apr-18 16:56N 43°44' W 007°37'0 0.0
2018-Apr-18 16:26N 43°44' W 007°37'0 0.0
2018-Apr-18 15:56N 43°44' W 007°37'0 0.0
2018-Apr-18 15:29N 43°44' W 007°37'0 0.0
2018-Apr-18 14:56N 43°44' W 007°37'0 0.0
2018-Apr-18 14:23N 43°44' W 007°37'0 0.0
2018-Apr-18 13:59N 43°44' W 007°37'0 0.0
2018-Apr-18 13:23N 43°44' W 007°37'0 0.0
2018-Apr-18 12:56N 43°44' W 007°37'0 0.0
2018-Apr-18 12:20N 43°44' W 007°37'0 0.1
2018-Apr-18 11:59N 43°44' W 007°37'0 0.0
2018-Apr-18 11:29N 43°44' W 007°37'0 0.0
2018-Apr-18 10:56N 43°44' W 007°37'0 0.0
2018-Apr-18 10:20N 43°44' W 007°37'0 0.0
2018-Apr-18 09:50N 43°44' W 007°37'0 0.1
2018-Apr-18 09:20N 43°44' W 007°37'0 0.1
2018-Apr-18 08:53N 43°44' W 007°37'0 0.1
2018-Apr-18 08:29N 43°44' W 007°37'0 0.0
2018-Apr-18 07:59N 43°44' W 007°37'0 0.1
2018-Apr-18 07:29N 43°44' W 007°37'0 0.0
2018-Apr-18 06:56N 43°44' W 007°37'0 0.0
2018-Apr-18 06:29N 43°44' W 007°37'0 0.0
2018-Apr-18 05:56N 43°44' W 007°37'0 0.0
2018-Apr-18 05:26N 43°44' W 007°37'0 0.0
2018-Apr-18 04:56N 43°44' W 007°37'0 0.1
2018-Apr-18 04:23N 43°44' W 007°37'0 0.0
2018-Apr-18 03:41N 43°44' W 007°37'0 0.1
2018-Apr-18 03:29N 43°44' W 007°37'0 0.1
2018-Apr-18 02:59N 43°44' W 007°37'0 0.0
2018-Apr-18 02:29N 43°44' W 007°37'0 0.0
2018-Apr-18 01:59N 43°44' W 007°37'0 0.0
2018-Apr-18 01:29N 43°44' W 007°37'0 0.0
2018-Apr-18 00:56N 43°44' W 007°37'0 0.0
2018-Apr-18 00:29N 43°44' W 007°37'0 0.0
2018-Apr-17 23:59N 43°44' W 007°37'0 0.0
2018-Apr-17 23:29N 43°44' W 007°37'0 0.0
2018-Apr-17 22:59N 43°44' W 007°37'0 0.0
2018-Apr-17 22:26N 43°44' W 007°37'0 0.1
2018-Apr-17 21:59N 43°44' W 007°37'0 0.0
2018-Apr-17 21:26N 43°44' W 007°37'0 0.0
2018-Apr-17 20:56N 43°44' W 007°37'0 0.0
2018-Apr-17 20:29N 43°44' W 007°37'0 0.0
2018-Apr-17 19:59N 43°44' W 007°37'0 0.0
2018-Apr-17 19:29N 43°44' W 007°37'0 0.0
2018-Apr-17 18:59N 43°44' W 007°37'0 0.0
2018-Apr-17 18:23N 43°44' W 007°37'0 0.0
2018-Apr-17 17:47N 43°44' W 007°37'0 0.0
2018-Apr-17 17:26N 43°44' W 007°37'0 0.0
2018-Apr-17 16:56N 43°44' W 007°37'0 0.0
2018-Apr-17 16:29N 43°44' W 007°37'0 0.1
2018-Apr-17 15:59N 43°44' W 007°37'0 0.0
2018-Apr-17 15:20N 43°44' W 007°37'0 0.0
2018-Apr-17 14:59N 43°44' W 007°37'0 0.1
2018-Apr-17 14:28N 43°44' W 007°37'0 0.2
2018-Apr-17 13:49N 43°44' W 007°37'0 0.3
2018-Apr-17 13:25N 43°44' W 007°37'0 0.0
2018-Apr-17 12:43N 43°44' W 007°37'0 0.1
2018-Apr-17 12:19N 43°44' W 007°37'0 0.0
2018-Apr-17 11:58N 43°44' W 007°37'0 0.1
2018-Apr-17 11:25N 43°44' W 007°37'0 0.0
2018-Apr-17 10:10N 43°44' W 007°37'0 0.0
2018-Apr-17 09:58N 43°44' W 007°37'  
Track history (hours):
 
Tides and Currents Weather Stations Pressure Air Temp Water Temp Dewpoint Dewpoint Depression Visibility Wind Speed Wind Dir Waves Ship Positions

Onego Capri

Last reported at 2018-Apr-24 02:30 UTC. Time now 2018-Apr-24 02:38 UTC.
Position N 54°38' E 012°28'.

Length 140 m; draft 4.1 m.

Type: Cargo ship. MMSI: 305394000.

Date/timePositionNaut miles runAvg speedWind from/ knotsBaromVisibWave heightAir tempDewpointWater temp
2018-Apr-24 02:30N 54°38' E 012°28'913.1
2018-Apr-24 01:50N 54°32' E 012°17'613.2
2018-Apr-24 01:25N 54°27' E 012°13'512.8
2018-Apr-24 01:00N 54°24' E 012°05'713.7
2018-Apr-24 00:30N 54°24' E 011°53'713.2
2018-Apr-24 00:00N 54°25' E 011°42'713.6
2018-Apr-23 23:30N 54°28' E 011°32'713.4
2018-Apr-23 23:00N 54°31' E 011°22'713.5
2018-Apr-23 22:30N 54°34' E 011°11'713.2
2018-Apr-23 22:00N 54°35' E 010°60'713.5
2018-Apr-23 21:30N 54°34' E 010°48'713.2
2018-Apr-23 21:00N 54°34' E 010°37'612.8
2018-Apr-23 20:30N 54°31' E 010°27'711.7
2018-Apr-23 19:54N 54°28' E 010°16'18 5.0
2018-Apr-23 16:21N 54°22' E 009°47'3 8.7
2018-Apr-23 16:00N 54°20' E 009°43'4 7.4
2018-Apr-23 15:30N 54°17' E 009°39'3 6.7
2018-Apr-23 15:00N 54°14' E 009°36'4 8.3
2018-Apr-23 14:30N 54°11' E 009°31'4 8.4
2018-Apr-23 14:00N 54°10' E 009°25'4 7.9
2018-Apr-23 13:30N 54°07' E 009°20'4 8.6
2018-Apr-23 13:00N 54°03' E 009°18'1 2.9
2018-Apr-23 12:30N 54°01' E 009°18'4 7.5
2018-Apr-23 12:00N 53°58' E 009°15'4 8.3
2018-Apr-23 11:30N 53°55' E 009°11'2 3.1
2018-Apr-23 11:00N 53°54' E 009°09'1 2.3
2018-Apr-23 10:30N 53°53' E 009°07'1 1.1
2018-Apr-23 10:00N 53°53' E 009°06'1 1.2
2018-Apr-23 09:30N 53°53' E 009°05'4 8.3
2018-Apr-23 09:00N 53°51' E 008°59'510.5
2018-Apr-23 08:30N 53°50' E 008°50'510.3
2018-Apr-23 08:00N 53°53' E 008°42'510.7
2018-Apr-23 07:30N 53°57' E 008°37'611.1
2018-Apr-23 07:00N 53°59' E 008°28'611.2
2018-Apr-23 06:30N 53°60' E 008°18'611.7
2018-Apr-23 06:00N 53°59' E 008°09'713.2
2018-Apr-23 05:30N 53°58' E 007°57'713.6
2018-Apr-23 05:00N 53°57' E 007°46'813.9
2018-Apr-23 04:25N 53°55' E 007°33'8414.6
2018-Apr-22 22:39N 53°32' E 005°17'314.8
2018-Apr-22 22:29N 53°31' E 005°13'715.0
2018-Apr-22 22:01N 53°28' E 005°01'815.0
2018-Apr-22 21:30N 53°26' E 004°49'714.3
2018-Apr-22 21:00N 53°21' E 004°40'815.0
2018-Apr-22 20:28N 53°14' E 004°33'714.9
2018-Apr-22 20:00N 53°08' E 004°27'714.7
2018-Apr-22 19:30N 53°01' E 004°22'714.6
2018-Apr-22 19:01N 52°55' E 004°17'714.4
2018-Apr-22 18:30N 52°49' E 004°11'714.2
2018-Apr-22 18:00N 52°43' E 004°04'714.0
2018-Apr-22 17:30N 52°38' E 003°56'713.6
2018-Apr-22 17:00N 52°33' E 003°48'713.3
2018-Apr-22 16:30N 52°29' E 003°40'713.1
2018-Apr-22 16:00N 52°24' E 003°32'612.9
2018-Apr-22 15:30N 52°20' E 003°25'612.6
2018-Apr-22 15:01N 52°15' E 003°18'612.4
2018-Apr-22 14:30N 52°10' E 003°10'612.2
2018-Apr-22 14:00N 52°06' E 003°04'612.0
2018-Apr-22 13:29N 52°01' E 002°57'611.9
2018-Apr-22 12:59N 51°57' E 002°51'1610.9
2018-Apr-22 11:30N 51°44' E 002°34'611.8
2018-Apr-22 10:58N 51°39' E 002°28'612.2
2018-Apr-22 10:30N 51°35' E 002°22'612.6
2018-Apr-22 10:01N 51°30' E 002°16'612.6
2018-Apr-22 09:30N 51°25' E 002°10'612.9
2018-Apr-22 09:00N 51°19' E 002°06'612.8
2018-Apr-22 08:30N 51°13' E 002°01'713.5
2018-Apr-22 08:00N 51°10' E 001°53'713.7
2018-Apr-22 07:30N 51°05' E 001°45'714.1
2018-Apr-22 07:00N 50°60' E 001°37'714.9
2018-Apr-22 06:31N 50°54' E 001°29'815.4
2018-Apr-22 06:00N 50°47' E 001°25'714.5
2018-Apr-22 05:30N 50°40' E 001°20'714.1
2018-Apr-22 05:00N 50°35' E 001°12'913.8
2018-Apr-22 04:23N 50°30' E 001°01'613.6
2018-Apr-22 03:57N 50°28' E 000°53'713.6
2018-Apr-22 03:26N 50°26' E 000°42'613.5
2018-Apr-22 03:00N 50°24' E 000°34'713.7
2018-Apr-22 02:30N 50°22' E 000°23'714.0
2018-Apr-22 02:00N 50°20' E 000°13'714.4
2018-Apr-22 01:31N 50°18' E 000°02'714.7
2018-Apr-22 01:00N 50°16' W 000°09'714.9
2018-Apr-22 00:30N 50°14' W 000°20'815.2
2018-Apr-22 00:00N 50°12' W 000°32'815.1
2018-Apr-21 23:30N 50°10' W 000°43'715.0
2018-Apr-21 23:00N 50°08' W 000°54'714.7
2018-Apr-21 22:31N 50°06' W 001°05'914.1
2018-Apr-21 21:52N 50°04' W 001°19'513.5
2018-Apr-21 21:30N 50°03' W 001°27'712.9
2018-Apr-21 21:00N 50°02' W 001°36'612.0
2018-Apr-21 20:30N 49°60' W 001°45'611.7
2018-Apr-21 20:00N 49°58' W 001°54'611.3
2018-Apr-21 19:27N 49°57' W 002°03'510.9
2018-Apr-21 19:00N 49°55' W 002°11'510.2
2018-Apr-21 18:30N 49°54' W 002°18'510.0
2018-Apr-21 17:58N 49°52' W 002°26'510.0
2018-Apr-21 17:28N 49°51' W 002°34'6 9.9
2018-Apr-21 16:51N 49°49' W 002°43'410.5
2018-Apr-21 16:30N 49°48' W 002°48'711.0
2018-Apr-21 15:49N 49°46' W 002°59'411.4
2018-Apr-21 15:30N 49°44' W 003°04'611.6
2018-Apr-21 14:59N 49°41' W 003°12'611.9
2018-Apr-21 14:30N 49°38' W 003°20'611.9
2018-Apr-21 14:00N 49°35' W 003°28'612.0
2018-Apr-21 13:30N 49°32' W 003°36'11813.0
2018-Apr-21 04:27N 48°16' W 005°53'613.7
2018-Apr-21 03:59N 48°10' W 005°55'613.4
2018-Apr-21 03:30N 48°04' W 005°57'713.1
2018-Apr-21 03:00N 47°58' W 005°60'612.8
2018-Apr-21 02:30N 47°51' W 006°02'612.6
2018-Apr-21 02:00N 47°45' W 006°04'612.4
2018-Apr-21 01:30N 47°39' W 006°06'612.1
2018-Apr-21 01:00N 47°33' W 006°07'20912.1
2018-Apr-20 07:43N 44°11' W 007°19'312.1
2018-Apr-20 07:27N 44°07' W 007°20'612.5
2018-Apr-20 06:58N 44°01' W 007°21'612.6
2018-Apr-20 06:30N 43°56' W 007°23'612.5
2018-Apr-20 06:00N 43°50' W 007°25'7 0.7
2018-Apr-19 19:24N 43°43' W 007°27'2 6.2
2018-Apr-19 19:00N 43°45' W 007°26'4 8.2
2018-Apr-19 18:29N 43°45' W 007°32'4 8.1
2018-Apr-19 18:00N 43°44' W 007°37'0 0.1
2018-Apr-19 17:30N 43°44' W 007°37'0 0.0
2018-Apr-19 17:00N 43°44' W 007°37'0 0.0
2018-Apr-19 16:30N 43°44' W 007°37'0 0.0
2018-Apr-19 15:57N 43°44' W 007°37'0 0.1
2018-Apr-19 15:30N 43°44' W 007°37'0 0.0
2018-Apr-19 15:00N 43°44' W 007°37'0 0.0
2018-Apr-19 14:24N 43°44' W 007°37'0 0.0
2018-Apr-19 13:51N 43°44' W 007°37'0 0.0
2018-Apr-19 13:30N 43°44' W 007°37'0 0.0
2018-Apr-19 12:57N 43°44' W 007°37'0 0.0
2018-Apr-19 12:18N 43°44' W 007°37'0 0.0
2018-Apr-19 11:57N 43°44' W 007°37'0 0.0
2018-Apr-19 11:30N 43°44' W 007°37'0 0.0
2018-Apr-19 11:00N 43°44' W 007°37'0 0.0
2018-Apr-19 10:30N 43°44' W 007°37'0 0.0
2018-Apr-19 09:54N 43°44' W 007°37'0 0.0
2018-Apr-19 09:30N 43°44' W 007°37'0 0.0
2018-Apr-19 09:00N 43°44' W 007°37'0 0.1
2018-Apr-19 08:30N 43°44' W 007°37'0 0.0
2018-Apr-19 07:54N 43°44' W 007°37'0 0.1
2018-Apr-19 07:27N 43°44' W 007°37'0 0.0
2018-Apr-19 06:54N 43°44' W 007°37'0 0.0
2018-Apr-19 06:24N 43°44' W 007°37'0 0.0
2018-Apr-19 05:51N 43°44' W 007°37'0 0.0
2018-Apr-19 05:30N 43°44' W 007°37'0 0.0
2018-Apr-19 05:00N 43°44' W 007°37'0 0.0
2018-Apr-19 04:30N 43°44' W 007°37'0 0.0
2018-Apr-19 03:54N 43°44' W 007°37'0 0.0
2018-Apr-19 03:30N 43°44' W 007°37'0 0.1
2018-Apr-19 02:47N 43°44' W 007°37'0 0.1
2018-Apr-19 02:29N 43°44' W 007°37'0 0.0
2018-Apr-19 01:56N 43°44' W 007°37'0 0.0
2018-Apr-19 01:29N 43°44' W 007°37'0 0.0
2018-Apr-19 00:59N 43°44' W 007°37'0 0.0
2018-Apr-19 00:26N 43°44' W 007°37'0 0.0
2018-Apr-18 23:59N 43°44' W 007°37'0 0.1
2018-Apr-18 23:29N 43°44' W 007°37'0 0.1
2018-Apr-18 22:59N 43°44' W 007°37'0 0.1
2018-Apr-18 22:29N 43°44' W 007°37'0 0.0
2018-Apr-18 21:56N 43°44' W 007°37'0 0.0
2018-Apr-18 21:17N 43°44' W 007°37'0 0.0
2018-Apr-18 20:59N 43°44' W 007°37'0 0.0
2018-Apr-18 20:29N 43°44' W 007°37'0 0.0
2018-Apr-18 19:59N 43°44' W 007°37'0 0.0
2018-Apr-18 19:29N 43°44' W 007°37'0 0.0
2018-Apr-18 18:59N 43°44' W 007°37'0 0.0
2018-Apr-18 18:26N 43°44' W 007°37'0 0.1
2018-Apr-18 17:44N 43°44' W 007°37'0 0.0
2018-Apr-18 17:29N 43°44' W 007°37'0 0.1
2018-Apr-18 16:56N 43°44' W 007°37'0 0.0
2018-Apr-18 16:26N 43°44' W 007°37'0 0.0
2018-Apr-18 15:56N 43°44' W 007°37'0 0.0
2018-Apr-18 15:29N 43°44' W 007°37'0 0.0
2018-Apr-18 14:56N 43°44' W 007°37'0 0.0
2018-Apr-18 14:23N 43°44' W 007°37'0 0.0
2018-Apr-18 13:59N 43°44' W 007°37'0 0.0
2018-Apr-18 13:23N 43°44' W 007°37'0 0.0
2018-Apr-18 12:56N 43°44' W 007°37'0 0.0
2018-Apr-18 12:20N 43°44' W 007°37'0 0.1
2018-Apr-18 11:59N 43°44' W 007°37'0 0.0
2018-Apr-18 11:29N 43°44' W 007°37'0 0.0
2018-Apr-18 10:56N 43°44' W 007°37'0 0.0
2018-Apr-18 10:20N 43°44' W 007°37'0 0.0
2018-Apr-18 09:50N 43°44' W 007°37'0 0.1
2018-Apr-18 09:20N 43°44' W 007°37'0 0.1
2018-Apr-18 08:53N 43°44' W 007°37'0 0.1
2018-Apr-18 08:29N 43°44' W 007°37'0 0.0
2018-Apr-18 07:59N 43°44' W 007°37'0 0.1
2018-Apr-18 07:29N 43°44' W 007°37'0 0.0
2018-Apr-18 06:56N 43°44' W 007°37'0 0.0
2018-Apr-18 06:29N 43°44' W 007°37'0 0.0
2018-Apr-18 05:56N 43°44' W 007°37'0 0.0
2018-Apr-18 05:26N 43°44' W 007°37'0 0.0
2018-Apr-18 04:56N 43°44' W 007°37'0 0.1
2018-Apr-18 04:23N 43°44' W 007°37'0 0.0
2018-Apr-18 03:41N 43°44' W 007°37'0 0.1
2018-Apr-18 03:29N 43°44' W 007°37'0 0.1
2018-Apr-18 02:59N 43°44' W 007°37'0 0.0
2018-Apr-18 02:29N 43°44' W 007°37'0 0.0
2018-Apr-18 01:59N 43°44' W 007°37'0 0.0
2018-Apr-18 01:29N 43°44' W 007°37'0 0.0
2018-Apr-18 00:56N 43°44' W 007°37'0 0.0
2018-Apr-18 00:29N 43°44' W 007°37'0 0.0
2018-Apr-17 23:59N 43°44' W 007°37'0 0.0
2018-Apr-17 23:29N 43°44' W 007°37'0 0.0
2018-Apr-17 22:59N 43°44' W 007°37'0 0.0
2018-Apr-17 22:26N 43°44' W 007°37'0 0.1
2018-Apr-17 21:59N 43°44' W 007°37'0 0.0
2018-Apr-17 21:26N 43°44' W 007°37'0 0.0
2018-Apr-17 20:56N 43°44' W 007°37'0 0.0
2018-Apr-17 20:29N 43°44' W 007°37'0 0.0
2018-Apr-17 19:59N 43°44' W 007°37'0 0.0
2018-Apr-17 19:29N 43°44' W 007°37'0 0.0
2018-Apr-17 18:59N 43°44' W 007°37'0 0.0
2018-Apr-17 18:23N 43°44' W 007°37'0 0.0
2018-Apr-17 17:47N 43°44' W 007°37'0 0.0
2018-Apr-17 17:26N 43°44' W 007°37'0 0.0
2018-Apr-17 16:56N 43°44' W 007°37'0 0.0
2018-Apr-17 16:29N 43°44' W 007°37'0 0.1
2018-Apr-17 15:59N 43°44' W 007°37'0 0.0
2018-Apr-17 15:20N 43°44' W 007°37'0 0.0
2018-Apr-17 14:59N 43°44' W 007°37'0 0.1
2018-Apr-17 14:28N 43°44' W 007°37'0 0.2
2018-Apr-17 13:49N 43°44' W 007°37'0 0.3
2018-Apr-17 13:25N 43°44' W 007°37'0 0.0
2018-Apr-17 12:43N 43°44' W 007°37'0 0.1
2018-Apr-17 12:19N 43°44' W 007°37'0 0.0
2018-Apr-17 11:58N 43°44' W 007°37'0 0.1
2018-Apr-17 11:25N 43°44' W 007°37'0 0.0
2018-Apr-17 10:10N 43°44' W 007°37'0 0.0
2018-Apr-17 09:58N 43°44' W 007°37'  

Dump ship's entire track history